Columbia, Maryland
Current Conditions -  °F | °C
As of 2:54 PM on Saturday 20 Dec 2014 (Local Time) from KFME Reporting Station
Scattered Clouds Scattered Clouds  
Wind Chill: 36°   Ceiling: Unl
Heat Index: 36°   Visibility: 10mi
Dew Point: 23°   Wind: 3mph
Humidity: 60%   Direction: 320°NW
Pressure: 30.28"   Gusts: NA
Location:  39.21°N, 76.87°W
Report Text: KFME 201954Z AUTO 32003KT 10SM SCT120 02/M05 A3028 RMK AO1
Loading
Personal Weather Stations






























Interactive Weather Map New forecast layout! Learn more

10-Day Weather Forecast

Advertisements
Track Severe Weather on mobile